Time;durP1;ratioP1;P1;durP2;ratioP2;P2;SDS_P1;SDS_P2;PMS_P1;PMS_P2;Temp;Humidity;BMP_temperature;BMP_pressure;BME280_temperature;BME280_humidity;BME280_pressure;Samples;Min_cycle;Max_cycle;Signal;HPM_P1;HPM_P2
2023/11/22 00:00:12;;;;;;;19.67;8.07;;;13.60;99.90;;;;;;7382488;19;20003;-73
2023/11/22 00:02:41;;;;;;;15.40;7.28;;;13.60;99.90;;;;;;7382566;19;20003;-73
2023/11/22 00:05:12;;;;;;;13.20;6.97;;;13.70;99.90;;;;;;7383460;19;20424;-73
2023/11/22 00:07:41;;;;;;;15.77;7.50;;;13.70;99.90;;;;;;7383675;19;20007;-74
2023/11/22 00:10:11;;;;;;;21.08;8.00;;;13.60;99.90;;;;;;7383420;19;20063;-74
2023/11/22 00:12:42;;;;;;;18.10;8.40;;;13.60;99.90;;;;;;7404655;19;20277;-74
2023/11/22 00:15:11;;;;;;;13.75;7.88;;;13.60;99.90;;;;;;7386810;19;20019;-73
2023/11/22 00:17:40;;;;;;;19.23;9.02;;;13.60;99.90;;;;;;7383062;19;20020;-74
2023/11/22 00:20:11;;;;;;;15.63;8.20;;;13.70;99.90;;;;;;7382345;19;20390;-73
2023/11/22 00:22:40;;;;;;;16.95;8.77;;;13.70;99.90;;;;;;7384833;19;20023;-74
2023/11/22 00:25:09;;;;;;;14.73;8.10;;;13.70;99.90;;;;;;7382820;19;20006;-74
2023/11/22 00:27:38;;;;;;;18.80;8.90;;;13.70;99.90;;;;;;7402105;19;20007;-74
2023/11/22 00:30:12;;;;;;;20.52;9.55;;;13.60;99.90;;;;;;7381514;19;20014;-74
2023/11/22 00:32:40;;;;;;;17.55;9.68;;;13.50;99.90;;;;;;7381860;19;20258;-74
2023/11/22 00:35:10;;;;;;;21.00;9.63;;;13.50;99.90;;;;;;7382170;19;20047;-73
2023/11/22 00:37:39;;;;;;;18.75;9.35;;;13.40;99.90;;;;;;7382302;19;20467;-74
2023/11/22 00:40:10;;;;;;;21.58;10.15;;;13.30;99.90;;;;;;7382584;19;20059;-72
2023/11/22 00:42:40;;;;;;;18.55;10.82;;;13.50;99.90;;;;;;7405095;19;20007;-74
2023/11/22 00:45:13;;;;;;;21.00;11.18;;;13.40;99.90;;;;;;7379316;19;20011;-74
2023/11/22 00:47:42;;;;;;;25.08;11.35;;;13.30;99.90;;;;;;7380581;19;20401;-74
2023/11/22 00:50:12;;;;;;;29.48;12.35;;;13.40;99.90;;;;;;7381608;19;20109;-74
2023/11/22 00:52:44;;;;;;;23.10;12.13;;;13.40;99.90;;;;;;7381726;19;19999;-74
2023/11/22 00:55:13;;;;;;;22.52;11.40;;;13.40;99.90;;;;;;7382239;19;20014;-74
2023/11/22 00:57:42;;;;;;;24.00;12.57;;;13.50;99.90;;;;;;7403277;19;20174;-74
2023/11/22 01:00:15;;;;;;;22.50;12.52;;;13.30;99.90;;;;;;7380653;19;20020;-74
2023/11/22 01:02:44;;;;;;;35.83;13.27;;;13.40;99.90;;;;;;7381226;19;20050;-73
2023/11/22 01:05:14;;;;;;;24.92;13.05;;;13.40;99.90;;;;;;7381261;19;19999;-73
2023/11/22 01:07:42;;;;;;;23.77;12.57;;;13.30;99.90;;;;;;7380275;19;20027;-74
2023/11/22 01:10:12;;;;;;;35.67;13.27;;;13.50;99.90;;;;;;7381545;19;20102;-73
2023/11/22 01:12:41;;;;;;;32.22;14.05;;;13.50;99.90;;;;;;7403355;19;20011;-74
2023/11/22 01:15:13;;;;;;;28.63;13.77;;;13.50;99.90;;;;;;7380447;19;20058;-74
2023/11/22 01:20:53;;;;;;;25.50;13.10;;;13.30;99.90;;;;;;7379780;19;20371;-74
2023/11/22 01:23:22;;;;;;;28.92;14.30;;;13.30;99.90;;;;;;7380505;19;20074;-74
2023/11/22 01:25:50;;;;;;;27.75;12.80;;;13.30;99.90;;;;;;7381553;19;20031;-74
2023/11/22 01:28:19;;;;;;;28.33;13.15;;;13.40;99.90;;;;;;7384560;19;20070;-74
2023/11/22 01:30:51;;;;;;;30.58;13.27;;;13.50;99.90;;;;;;7384520;19;20038;-74
2023/11/22 01:33:20;;;;;;;24.20;12.45;;;13.60;99.90;;;;;;7406602;19;20017;-75
2023/11/22 01:35:49;;;;;;;27.73;13.15;;;13.50;99.90;;;;;;7384475;19;20061;-74
2023/11/22 01:38:18;;;;;;;23.27;12.27;;;13.60;99.90;;;;;;7380715;19;20010;-74
2023/11/22 01:40:47;;;;;;;26.65;13.60;;;13.60;99.90;;;;;;7380434;19;20003;-74
2023/11/22 01:43:17;;;;;;;25.85;13.75;;;13.60;99.90;;;;;;7380731;19;20009;-74
2023/11/22 01:45:47;;;;;;;27.38;13.55;;;13.50;99.90;;;;;;7395717;19;20007;-74
2023/11/22 01:48:18;;;;;;;26.88;12.90;;;13.50;99.90;;;;;;7401421;19;20279;-74
2023/11/22 01:50:47;;;;;;;;;;;13.60;99.90;;;;;;7380588;19;20058;-74
2023/11/22 01:53:18;;;;;;;29.50;12.52;;;13.60;99.90;;;;;;7379318;19;19907;-74
2023/11/22 01:55:50;;;;;;;22.58;12.50;;;13.50;99.90;;;;;;7380405;19;20017;-74
2023/11/22 01:58:19;;;;;;;31.73;13.13;;;13.40;99.90;;;;;;7379875;19;20022;-74
2023/11/22 02:00:52;;;;;;;23.30;12.88;;;13.50;99.90;;;;;;7382844;19;20020;-74
2023/11/22 02:03:24;;;;;;;22.02;12.43;;;13.50;99.90;;;;;;7400801;19;20010;-74
2023/11/22 02:05:54;;;;;;;25.48;13.38;;;13.50;99.90;;;;;;7378859;19;20002;-75
2023/11/22 02:08:22;;;;;;;25.45;13.63;;;13.40;99.90;;;;;;7379226;19;19999;-73
2023/11/22 02:11:00;;;;;;;33.97;13.38;;;13.30;99.90;;;;;;7378881;19;20353;-74
2023/11/22 02:13:29;;;;;;;23.30;12.77;;;13.30;99.90;;;;;;7379127;19;20058;-74
2023/11/22 02:15:59;;;;;;;24.27;12.75;;;13.10;99.90;;;;;;7378546;19;20329;-73
2023/11/22 02:18:31;;;;;;;31.15;13.85;;;13.00;99.90;;;;;;7400598;19;20011;-73
2023/11/22 02:21:00;;;;;;;24.88;13.68;;;12.90;99.90;;;;;;7378583;19;20323;-73
2023/11/22 02:23:32;;;;;;;32.30;13.77;;;13.10;99.90;;;;;;7379074;19;20365;-73
2023/11/22 02:26:01;;;;;;;22.50;12.77;;;13.10;99.90;;;;;;7379049;19;20006;-74
2023/11/22 02:28:30;;;;;;;27.42;13.43;;;13.00;99.90;;;;;;7378866;19;20017;-74
2023/11/22 02:30:58;;;;;;;25.25;14.10;;;13.20;99.90;;;;;;7378644;19;20074;-74
2023/11/22 02:33:29;;;;;;;28.08;14.88;;;13.20;99.90;;;;;;7399599;19;20292;-74
2023/11/22 02:35:58;;;;;;;27.65;15.07;;;13.00;99.90;;;;;;7377716;19;19999;-74
2023/11/22 02:38:27;;;;;;;36.65;15.52;;;12.90;99.90;;;;;;7377872;19;20008;-74
2023/11/22 02:40:59;;;;;;;37.28;15.52;;;12.90;99.90;;;;;;7377042;19;20042;-74
2023/11/22 02:43:27;;;;;;;29.00;15.43;;;13.20;99.90;;;;;;7378117;19;20058;-74
2023/11/22 02:45:56;;;;;;;25.33;15.57;;;13.30;99.90;;;;;;7376507;19;20023;-74
2023/11/22 02:48:25;;;;;;;26.83;15.35;;;13.20;99.90;;;;;;7397945;19;20089;-74
2023/11/22 02:50:55;;;;;;;32.90;15.82;;;13.00;99.90;;;;;;7377330;19;20025;-74
2023/11/22 02:53:23;;;;;;;30.38;15.23;;;12.90;99.90;;;;;;7378115;19;20006;-74
2023/11/22 02:55:53;;;;;;;28.05;15.70;;;12.90;99.90;;;;;;7377762;19;20042;-74
2023/11/22 02:58:25;;;;;;;25.55;15.05;;;12.80;99.90;;;;;;7378331;19;20010;-73
2023/11/22 03:00:57;;;;;;;30.05;15.70;;;12.90;99.90;;;;;;7378677;19;20066;-73
2023/11/22 03:03:25;;;;;;;26.75;14.05;;;12.90;99.90;;;;;;7399985;19;20011;-73
2023/11/22 03:05:55;;;;;;;29.88;16.80;;;12.90;99.90;;;;;;7378530;19;20010;-73
2023/11/22 03:08:24;;;;;;;30.58;15.38;;;12.80;99.90;;;;;;7384197;19;20007;-73
2023/11/22 03:10:53;;;;;;;27.80;15.27;;;12.80;99.90;;;;;;7385167;19;20619;-73
2023/11/22 03:13:25;;;;;;;31.70;13.80;;;12.80;99.90;;;;;;7385075;19;20003;-73
2023/11/22 03:15:53;;;;;;;;;;;12.90;99.90;;;;;;7385532;19;20013;-74
2023/11/22 03:18:22;;;;;;;23.63;13.60;;;12.70;99.90;;;;;;7406717;19;19924;-73
2023/11/22 03:20:54;;;;;;;25.67;15.07;;;12.80;99.90;;;;;;7384577;19;20066;-73
2023/11/22 03:23:22;;;;;;;24.02;13.95;;;12.80;99.90;;;;;;7384437;19;20011;-74
2023/11/22 03:25:51;;;;;;;28.50;15.55;;;12.70;99.90;;;;;;7388523;19;20007;-73
2023/11/22 03:28:22;;;;;;;27.80;16.25;;;12.60;99.90;;;;;;7383089;19;20018;-74
2023/11/22 03:30:53;;;;;;;26.48;15.52;;;12.70;99.90;;;;;;7385632;19;20038;-73
2023/11/22 03:33:22;;;;;;;;;;;12.60;99.90;;;;;;7406697;19;20006;-73
2023/11/22 03:35:50;;;;;;;29.00;15.98;;;12.70;99.90;;;;;;7383732;19;19911;-73
2023/11/22 03:38:19;;;;;;;28.05;16.25;;;12.60;99.90;;;;;;7384268;19;20445;-73
2023/11/22 03:40:48;;;;;;;28.58;16.15;;;12.50;99.90;;;;;;7384104;19;19999;-74
2023/11/22 03:43:19;;;;;;;24.85;14.27;;;12.60;99.90;;;;;;7384236;19;20007;-73
2023/11/22 03:45:48;;;;;;;28.67;15.85;;;12.40;99.90;;;;;;7385144;19;20097;-73
2023/11/22 03:48:22;;;;;;;30.75;15.40;;;12.10;99.90;;;;;;7407154;19;20007;-73
2023/11/22 03:50:50;;;;;;;27.65;14.45;;;12.20;99.90;;;;;;7396942;19;19923;-73
2023/11/22 03:53:21;;;;;;;26.83;15.13;;;12.10;99.90;;;;;;7387703;19;20019;-74
2023/11/22 03:55:50;;;;;;;26.90;15.55;;;12.30;99.90;;;;;;7387335;19;20389;-74
2023/11/22 03:58:18;;;;;;;;;;;12.10;99.90;;;;;;7380617;19;20007;-73
2023/11/22 04:00:47;;;;;;;27.23;14.30;;;12.10;99.90;;;;;;7393444;19;19927;-73
2023/11/22 04:03:18;;;;;;;25.60;12.75;;;12.10;99.90;;;;;;7404429;19;20011;-73
2023/11/22 04:05:47;;;;;;;;;;;12.00;99.90;;;;;;7384070;19;20081;-73
2023/11/22 04:08:15;;;;;;;23.15;13.35;;;12.10;99.90;;;;;;7383148;19;19955;-74
2023/11/22 04:10:45;;;;;;;24.27;13.25;;;12.00;99.90;;;;;;7382951;19;20003;-74
2023/11/22 04:13:14;;;;;;;25.45;13.25;;;12.00;99.90;;;;;;7383304;19;20484;-74
2023/11/22 04:15:43;;;;;;;23.83;11.57;;;12.10;99.90;;;;;;7404271;19;20074;-73
2023/11/22 04:18:11;;;;;;;23.38;13.75;;;12.20;99.90;;;;;;7381242;19;20354;-74
2023/11/22 04:20:42;;;;;;;22.98;13.40;;;12.10;99.90;;;;;;7382499;19;20015;-74
2023/11/22 04:23:13;;;;;;;24.98;13.20;;;12.10;99.90;;;;;;7382820;19;20038;-74
2023/11/22 04:25:43;;;;;;;25.33;12.43;;;12.10;99.90;;;;;;7386880;19;20066;-74
2023/11/22 04:28:12;;;;;;;;;;;12.10;99.90;;;;;;7381338;19;20022;-74
2023/11/22 04:30:49;;;;;;;;;;;11.90;99.90;;;;;;7402429;19;19915;-74
2023/11/22 04:33:18;;;;;;;;;;;12.00;99.90;;;;;;7384380;19;20373;-74
2023/11/22 04:35:49;;;;;;;;;;;11.60;99.90;;;;;;7382417;19;19987;-74
2023/11/22 04:38:17;;;;;;;;;;;11.40;99.90;;;;;;7382728;19;20191;-73
2023/11/22 04:40:46;;;;;;;;;;;11.20;99.90;;;;;;7383997;19;19920;-73
2023/11/22 04:43:14;;;;;;;;;;;11.30;99.90;;;;;;7382405;19;19907;-73
2023/11/22 04:45:43;;;;;;;21.10;11.40;;;11.20;99.90;;;;;;7401068;19;19919;-73
2023/11/22 04:48:14;;;;;;;20.45;10.95;;;11.20;99.90;;;;;;7380144;19;20363;-74
2023/11/22 04:50:43;;;;;;;;;;;11.20;99.90;;;;;;7378828;19;20023;-73
2023/11/22 04:53:14;;;;;;;22.33;12.43;;;11.20;99.90;;;;;;7381796;19;19903;-73
2023/11/22 04:55:43;;;;;;;;;;;11.30;99.90;;;;;;7380973;19;20495;-73
2023/11/22 04:58:11;;;;;;;20.70;12.25;;;11.20;99.90;;;;;;7382473;19;19915;-73
2023/11/22 05:00:40;;;;;;;;;;;11.30;99.90;;;;;;7401967;19;20067;-73
2023/11/22 05:03:08;;;;;;;28.20;12.65;;;11.30;99.90;;;;;;7380481;19;19910;-73
2023/11/22 05:05:37;;;;;;;22.45;12.70;;;11.30;99.90;;;;;;7379663;19;20007;-73
2023/11/22 05:08:06;;;;;;;25.58;12.85;;;11.30;99.90;;;;;;7379631;19;20191;-74
2023/11/22 05:10:37;;;;;;;21.70;12.80;;;11.40;99.90;;;;;;7381294;19;19924;-74
2023/11/22 05:13:06;;;;;;;21.85;11.95;;;11.20;99.90;;;;;;7381818;19;20036;-74
2023/11/22 05:15:35;;;;;;;23.23;13.13;;;11.20;99.90;;;;;;7402835;19;20381;-74
2023/11/22 05:18:04;;;;;;;21.85;12.60;;;11.30;99.90;;;;;;7380876;19;20019;-73
2023/11/22 05:20:35;;;;;;;23.40;13.80;;;11.30;99.90;;;;;;7380139;19;20015;-74
2023/11/22 05:23:04;;;;;;;22.60;12.30;;;11.20;99.90;;;;;;7380428;19;19907;-73
2023/11/22 05:25:38;;;;;;;23.05;13.23;;;11.30;99.90;;;;;;7380798;19;24050;-75
2023/11/22 05:28:07;;;;;;;24.70;13.40;;;11.10;99.90;;;;;;7378034;19;20291;-74
2023/11/22 05:30:36;;;;;;;21.50;12.25;;;11.10;99.90;;;;;;7401304;19;19942;-74
2023/11/22 05:33:04;;;;;;;23.70;12.65;;;11.10;99.90;;;;;;7383385;19;20011;-74
2023/11/22 05:35:33;;;;;;;22.55;12.27;;;11.20;99.90;;;;;;7379830;19;20022;-74
2023/11/22 05:38:02;;;;;;;25.50;14.10;;;11.10;99.90;;;;;;7379020;19;20484;-77
2023/11/22 05:40:31;;;;;;;23.30;13.00;;;11.00;99.90;;;;;;7380830;19;20131;-74
2023/11/22 05:43:02;;;;;;;23.42;12.48;;;11.00;99.90;;;;;;7380436;19;19927;-76
2023/11/22 05:45:31;;;;;;;21.75;11.80;;;11.10;99.90;;;;;;7400055;19;19936;-75
2023/11/22 05:47:59;;;;;;;22.30;11.60;;;11.20;99.90;;;;;;7378828;19;20039;-74
2023/11/22 05:50:32;;;;;;;23.17;12.07;;;10.90;99.90;;;;;;7380453;19;20034;-73
2023/11/22 05:53:00;;;;;;;27.10;12.88;;;11.10;99.90;;;;;;7380469;19;19907;-73
2023/11/22 05:55:29;;;;;;;;;;;11.00;99.90;;;;;;7378132;19;20369;-74
2023/11/22 05:57:57;;;;;;;24.20;13.80;;;11.00;99.90;;;;;;7378595;19;19943;-73
2023/11/22 06:00:29;;;;;;;22.83;12.30;;;11.00;99.90;;;;;;7400902;19;19918;-73
2023/11/22 06:02:58;;;;;;;25.45;12.30;;;10.70;99.90;;;;;;7380195;19;19978;-73
2023/11/22 06:05:27;;;;;;;24.60;13.50;;;10.70;99.90;;;;;;7382958;19;20038;-74
2023/11/22 06:07:56;;;;;;;;;;;10.80;99.90;;;;;;7385036;19;19914;-74
2023/11/22 06:10:25;;;;;;;;;;;10.80;99.90;;;;;;7387215;19;20010;-73
2023/11/22 06:12:53;;;;;;;22.20;12.20;;;10.70;99.90;;;;;;7383350;19;19911;-73
2023/11/22 06:15:23;;;;;;;23.10;13.23;;;10.60;99.90;;;;;;7405945;19;19910;-74
2023/11/22 06:17:54;;;;;;;24.60;12.27;;;10.60;99.90;;;;;;7379545;19;20003;-73
2023/11/22 06:20:26;;;;;;;20.52;11.48;;;10.40;99.90;;;;;;7379367;19;20023;-73
2023/11/22 06:22:55;;;;;;;20.63;11.13;;;10.60;99.90;;;;;;7379244;19;20030;-73
2023/11/22 06:25:23;;;;;;;20.48;11.15;;;10.70;99.90;;;;;;7377693;19;20365;-74
2023/11/22 06:27:52;;;;;;;20.50;11.77;;;10.60;99.90;;;;;;7376529;19;20054;-73
2023/11/22 06:30:21;;;;;;;23.15;11.45;;;10.60;99.90;;;;;;7398424;19;20063;-73
2023/11/22 06:32:49;;;;;;;24.20;12.32;;;10.70;99.90;;;;;;7379239;19;20030;-73
2023/11/22 06:35:20;;;;;;;22.05;11.52;;;10.70;99.90;;;;;;7375780;19;20014;-73
2023/11/22 06:37:49;;;;;;;26.85;12.57;;;10.80;99.90;;;;;;7376196;19;19999;-74
2023/11/22 06:40:20;;;;;;;19.08;11.20;;;10.90;99.90;;;;;;7376621;19;20027;-73
2023/11/22 06:42:49;;;;;;;18.80;12.20;;;10.80;99.90;;;;;;7377475;19;20003;-74
2023/11/22 06:45:18;;;;;;;20.33;12.27;;;10.90;99.90;;;;;;7397660;19;20110;-74
2023/11/22 06:47:50;;;;;;;17.70;11.55;;;11.00;99.90;;;;;;7376747;19;20018;-74
2023/11/22 06:50:21;;;;;;;21.83;12.75;;;11.10;99.90;;;;;;7377971;19;20045;-74
2023/11/22 06:52:52;;;;;;;19.60;11.70;;;11.10;99.90;;;;;;7377043;19;20007;-74
2023/11/22 06:55:26;;;;;;;25.92;13.10;;;11.10;99.90;;;;;;7377727;19;20017;-74
2023/11/22 06:57:55;;;;;;;23.42;11.82;;;11.10;99.90;;;;;;7378513;19;20006;-74
2023/11/22 07:00:24;;;;;;;23.80;12.90;;;11.30;99.90;;;;;;7398714;19;20130;-74
2023/11/22 07:02:54;;;;;;;19.30;11.70;;;11.30;99.90;;;;;;7374561;19;20357;-73
2023/11/22 07:05:27;;;;;;;31.75;13.48;;;11.30;99.90;;;;;;7375129;19;20003;-73
2023/11/22 07:07:55;;;;;;;28.98;12.82;;;11.30;99.90;;;;;;7375324;19;20003;-73
2023/11/22 07:10:24;;;;;;;24.50;13.05;;;11.30;99.90;;;;;;7374738;19;20013;-73
2023/11/22 07:12:52;;;;;;;28.80;13.27;;;11.30;99.90;;;;;;7374782;19;20230;-74
2023/11/22 07:15:21;;;;;;;34.10;13.02;;;11.40;99.90;;;;;;7395305;19;20058;-73
2023/11/22 07:17:50;;;;;;;25.63;12.95;;;11.40;99.90;;;;;;7374959;19;20513;-73
2023/11/22 07:20:19;;;;;;;27.60;14.40;;;11.50;99.90;;;;;;7375176;19;20007;-74
2023/11/22 07:22:54;;;;;;;27.80;14.40;;;11.40;99.90;;;;;;7375513;19;20003;-73
2023/11/22 07:25:24;;;;;;;24.38;14.68;;;11.40;99.90;;;;;;7375949;19;20013;-75
2023/11/22 07:27:54;;;;;;;24.58;13.38;;;11.30;99.90;;;;;;7376119;19;20017;-74
2023/11/22 07:30:23;;;;;;;26.30;14.48;;;11.30;99.90;;;;;;7397842;19;20300;-73
2023/11/22 07:32:53;;;;;;;27.75;14.77;;;11.30;99.90;;;;;;7379462;19;20252;-74
2023/11/22 07:35:22;;;;;;;28.83;14.73;;;11.20;99.90;;;;;;7377116;19;20003;-74
2023/11/22 07:37:54;;;;;;;36.83;15.93;;;11.20;99.90;;;;;;7376447;19;20011;-74
2023/11/22 07:40:23;;;;;;;28.73;15.25;;;11.30;99.90;;;;;;7375783;19;20024;-74
2023/11/22 07:42:52;;;;;;;30.40;16.05;;;11.20;99.90;;;;;;7375429;19;20031;-74
2023/11/22 07:45:22;;;;;;;28.48;16.35;;;11.20;99.90;;;;;;7395048;19;20007;-73
2023/11/22 07:47:52;;;;;;;28.00;16.15;;;11.20;99.90;;;;;;7375503;19;20011;-74
2023/11/22 07:50:24;;;;;;;31.58;16.13;;;11.20;99.90;;;;;;7375748;19;20007;-74
2023/11/22 07:52:55;;;;;;;35.78;16.45;;;11.30;99.90;;;;;;7380503;19;20010;-75
2023/11/22 07:55:24;;;;;;;;;;;11.30;99.90;;;;;;7383563;19;20097;-74
2023/11/22 07:57:55;;;;;;;31.92;16.98;;;11.30;99.90;;;;;;7383011;19;19967;-74
2023/11/22 08:00:24;;;;;;;35.50;18.23;;;11.30;99.90;;;;;;7404352;19;20023;-74
2023/11/22 08:02:54;;;;;;;37.67;17.90;;;11.40;99.90;;;;;;7381863;19;20078;-74
2023/11/22 08:05:23;;;;;;;37.33;17.90;;;11.30;99.90;;;;;;7381213;19;20010;-72
2023/11/22 08:07:54;;;;;;;31.83;18.58;;;11.40;99.90;;;;;;7381984;19;20005;-73
2023/11/22 08:10:25;;;;;;;40.35;16.67;;;11.40;99.90;;;;;;7382273;19;20007;-74
2023/11/22 08:12:54;;;;;;;35.63;18.87;;;11.30;99.90;;;;;;7382187;19;20010;-73
2023/11/22 08:15:22;;;;;;;36.17;18.63;;;11.40;99.90;;;;;;7400142;19;20010;-73
2023/11/22 08:17:51;;;;;;;38.20;18.88;;;11.40;99.90;;;;;;7379057;19;20070;-73
2023/11/22 08:20:19;;;;;;;37.15;19.52;;;11.30;99.90;;;;;;7380009;19;20094;-73
2023/11/22 08:22:49;;;;;;;35.67;18.75;;;11.40;99.90;;;;;;7382057;19;20007;-73
2023/11/22 08:25:20;;;;;;;40.85;18.30;;;11.30;99.90;;;;;;7384682;19;19998;-74
2023/11/22 08:27:50;;;;;;;36.85;19.67;;;11.30;99.90;;;;;;7383672;19;20011;-73
2023/11/22 08:30:19;;;;;;;39.45;19.63;;;11.40;99.90;;;;;;7403309;19;20015;-73
2023/11/22 08:32:53;;;;;;;45.55;21.25;;;11.40;99.90;;;;;;7386959;19;20074;-74
2023/11/22 08:35:23;;;;;;;34.85;19.13;;;11.40;99.90;;;;;;7380826;19;20010;-74
2023/11/22 08:37:52;;;;;;;41.55;19.52;;;11.40;99.90;;;;;;7381965;19;20007;-74
2023/11/22 08:40:23;;;;;;;36.38;18.73;;;11.30;99.90;;;;;;7381661;19;20019;-73
2023/11/22 08:42:52;;;;;;;37.67;18.63;;;11.30;99.90;;;;;;7381594;19;20002;-73
2023/11/22 08:45:21;;;;;;;43.60;21.10;;;11.30;99.90;;;;;;7401163;19;20070;-73
2023/11/22 08:47:51;;;;;;;36.28;19.60;;;11.20;99.90;;;;;;7380953;19;20341;-73
2023/11/22 08:50:19;;;;;;;35.42;18.90;;;11.30;99.90;;;;;;7380248;19;20258;-73
2023/11/22 08:52:48;;;;;;;49.75;20.33;;;11.40;99.90;;;;;;7381235;19;20003;-73
2023/11/22 08:55:21;;;;;;;41.05;20.13;;;11.30;99.90;;;;;;7381667;19;20014;-72
2023/11/22 08:57:53;;;;;;;36.30;20.70;;;11.40;99.90;;;;;;7380780;19;20021;-73
2023/11/22 09:00:25;;;;;;;38.33;20.23;;;11.40;99.90;;;;;;7403070;19;20007;-74
2023/11/22 09:02:54;;;;;;;45.30;23.67;;;11.50;99.90;;;;;;7379878;19;20684;-74
2023/11/22 09:05:23;;;;;;;40.13;21.42;;;11.30;99.90;;;;;;7380473;19;20369;-74
2023/11/22 09:07:55;;;;;;;37.80;20.30;;;11.50;99.90;;;;;;7380681;19;20400;-73
2023/11/22 09:10:24;;;;;;;42.90;20.25;;;11.50;99.90;;;;;;7379232;19;20006;-74
2023/11/22 09:12:55;;;;;;;34.35;19.10;;;11.60;99.90;;;;;;7380744;19;20028;-73
2023/11/22 09:15:26;;;;;;;;;;;11.60;99.90;;;;;;7403460;19;20027;-74
2023/11/22 09:17:56;;;;;;;37.90;18.35;;;11.60;99.90;;;;;;7379970;19;19911;-73
2023/11/22 09:20:24;;;;;;;37.22;19.15;;;11.60;99.90;;;;;;7379999;19;20239;-73
2023/11/22 09:22:55;;;;;;;36.00;19.95;;;11.60;99.90;;;;;;7380140;19;20011;-73
2023/11/22 09:25:25;;;;;;;40.00;19.40;;;11.60;99.90;;;;;;7380629;19;20460;-74
2023/11/22 09:27:58;;;;;;;35.30;19.58;;;11.60;99.90;;;;;;7380200;19;20007;-74
2023/11/22 09:30:35;;;;;;;37.85;18.63;;;11.50;99.90;;;;;;7400115;19;20007;-74
2023/11/22 09:33:05;;;;;;;38.35;19.30;;;11.50;99.90;;;;;;7382659;19;20003;-74
2023/11/22 09:35:35;;;;;;;37.03;18.83;;;11.50;99.90;;;;;;7379485;19;20002;-74
2023/11/22 09:38:04;;;;;;;37.13;18.75;;;11.60;99.90;;;;;;7379407;19;20424;-73
2023/11/22 09:40:35;;;;;;;38.47;18.55;;;11.60;99.90;;;;;;7380088;19;20005;-73
2023/11/22 09:43:07;;;;;;;32.42;18.30;;;11.70;99.90;;;;;;7379828;19;20017;-73
2023/11/22 09:45:36;;;;;;;;;;;11.70;99.90;;;;;;7400178;19;20662;-73
2023/11/22 09:48:06;;;;;;;33.92;18.40;;;11.80;99.90;;;;;;7378795;19;19910;-73
2023/11/22 09:50:41;;;;;;;34.53;18.23;;;11.80;99.90;;;;;;7378712;19;20019;-73
2023/11/22 09:53:16;;;;;;;37.13;18.48;;;11.90;99.90;;;;;;7379299;19;20078;-73
2023/11/22 09:55:47;;;;;;;36.10;18.95;;;11.90;99.90;;;;;;7379393;19;20082;-73
2023/11/22 09:58:19;;;;;;;30.08;16.15;;;11.90;99.90;;;;;;7378951;19;20400;-73
2023/11/22 10:00:50;;;;;;;29.95;17.13;;;11.90;99.90;;;;;;7378885;19;20022;-73
2023/11/22 10:03:20;;;;;;;34.90;17.77;;;11.80;99.90;;;;;;7399882;19;20688;-73
2023/11/22 10:05:48;;;;;;;32.67;16.67;;;11.80;99.90;;;;;;7378115;19;20683;-73
2023/11/22 10:08:18;;;;;;;32.08;16.75;;;11.80;99.90;;;;;;7377864;19;20015;-73
2023/11/22 10:10:51;;;;;;;35.67;17.52;;;11.90;99.90;;;;;;7378048;19;20003;-73
2023/11/22 10:13:22;;;;;;;34.97;18.35;;;12.00;99.90;;;;;;7378942;19;20043;-74
2023/11/22 10:15:52;;;;;;;33.88;17.42;;;12.00;99.90;;;;;;7377453;19;20011;-73
2023/11/22 10:18:21;;;;;;;29.77;16.05;;;12.10;99.90;;;;;;7399292;19;20035;-73
2023/11/22 10:20:51;;;;;;;31.92;17.10;;;12.10;99.90;;;;;;7377942;19;20003;-73
2023/11/22 10:23:24;;;;;;;29.88;16.88;;;12.20;99.90;;;;;;7378466;19;20010;-73
2023/11/22 10:25:55;;;;;;;28.92;15.55;;;12.20;99.90;;;;;;7378169;19;20007;-73
2023/11/22 10:28:30;;;;;;;30.85;16.60;;;12.20;99.90;;;;;;7378994;19;20175;-73
2023/11/22 10:30:59;;;;;;;37.15;14.32;;;12.20;99.90;;;;;;7377363;19;20017;-73
2023/11/22 10:33:27;;;;;;;42.80;16.83;;;12.10;99.90;;;;;;7403470;19;20009;-73
2023/11/22 10:35:57;;;;;;;31.63;16.48;;;12.20;99.90;;;;;;7378138;19;20019;-74
2023/11/22 10:38:25;;;;;;;34.65;15.60;;;12.20;99.90;;;;;;7378582;19;20002;-74
2023/11/22 10:40:59;;;;;;;30.25;15.48;;;12.20;99.90;;;;;;7379764;19;20003;-73
2023/11/22 10:43:34;;;;;;;29.77;15.30;;;12.20;99.90;;;;;;7380811;19;20010;-74
2023/11/22 10:46:06;;;;;;;29.38;15.40;;;12.30;99.90;;;;;;7380156;19;20381;-74
2023/11/22 10:48:35;;;;;;;35.17;16.23;;;12.30;99.90;;;;;;7401335;19;20013;-73
2023/11/22 10:51:06;;;;;;;30.80;15.30;;;12.30;99.90;;;;;;7376459;19;20002;-73
2023/11/22 10:53:38;;;;;;;30.55;15.38;;;12.30;99.90;;;;;;7377605;19;20002;-73
2023/11/22 10:56:19;;;;;;;34.63;15.63;;;12.40;99.90;;;;;;7377347;19;20006;-74
2023/11/22 10:58:52;;;;;;;;;;;12.40;99.90;;;;;;7378279;19;20006;-73
2023/11/22 11:01:25;;;;;;;29.83;14.18;;;12.40;99.90;;;;;;7377647;19;19959;-74
2023/11/22 11:04:00;;;;;;;35.40;15.80;;;12.40;99.90;;;;;;7377655;19;20011;-74
2023/11/22 11:06:34;;;;;;;25.55;14.93;;;12.40;99.90;;;;;;7400679;19;20017;-74
2023/11/22 11:09:05;;;;;;;27.20;14.20;;;12.40;99.90;;;;;;7376911;19;20017;-73
2023/11/22 11:11:34;;;;;;;26.08;12.45;;;12.50;99.90;;;;;;7377997;19;20020;-74
2023/11/22 11:14:07;;;;;;;24.40;12.30;;;12.50;99.90;;;;;;7376745;19;20006;-73
2023/11/22 11:16:41;;;;;;;21.88;12.23;;;12.40;99.90;;;;;;7377591;19;20003;-73
2023/11/22 11:19:12;;;;;;;19.13;11.43;;;12.40;99.90;;;;;;7378029;19;20010;-73
2023/11/22 11:21:42;;;;;;;23.52;11.60;;;12.50;99.90;;;;;;7398401;19;20007;-74
2023/11/22 11:24:11;;;;;;;17.63;10.57;;;12.40;99.90;;;;;;7376579;19;20491;-73
2023/11/22 11:26:40;;;;;;;21.05;10.32;;;12.50;99.90;;;;;;7377268;19;20377;-74
2023/11/22 11:29:36;;;;;;;20.30;11.10;;;12.60;99.90;;;;;;7384317;19;20499;-73
2023/11/22 11:32:06;;;;;;;20.48;11.18;;;12.50;99.90;;;;;;7385769;19;20074;-74
2023/11/22 11:34:34;;;;;;;17.70;10.02;;;12.60;99.90;;;;;;7384668;19;20417;-74
2023/11/22 11:37:03;;;;;;;17.73;9.10;;;12.60;99.90;;;;;;7384392;19;20022;-73
2023/11/22 11:39:32;;;;;;;16.23;9.43;;;12.60;99.10;;;;;;7405855;19;20010;-74
2023/11/22 11:42:13;;;;;;;14.60;8.35;;;12.60;97.80;;;;;;7382789;19;20255;-73
2023/11/22 11:45:06;;;;;;;17.33;7.35;;;12.50;95.90;;;;;;7381423;19;20366;-73
2023/11/22 11:47:34;;;;;;;13.60;7.30;;;12.40;94.40;;;;;;7382888;19;20068;-72
2023/11/22 11:50:04;;;;;;;18.17;7.65;;;12.50;94.80;;;;;;7382558;19;20002;-73
2023/11/22 11:52:35;;;;;;;16.30;8.57;;;12.60;95.30;;;;;;7384169;19;20006;-74
2023/11/22 11:55:04;;;;;;;16.08;8.10;;;12.70;94.80;;;;;;7383685;19;20098;-73
2023/11/22 11:57:35;;;;;;;15.15;7.68;;;12.70;95.00;;;;;;7404964;19;20033;-73
2023/11/22 12:00:09;;;;;;;14.38;7.63;;;12.70;93.80;;;;;;7382071;19;20026;-74
2023/11/22 12:02:39;;;;;;;15.48;8.07;;;12.70;93.70;;;;;;7382768;19;20030;-73
2023/11/22 12:05:09;;;;;;;14.70;7.78;;;12.80;94.30;;;;;;7382887;19;20422;-73
2023/11/22 12:07:38;;;;;;;12.60;7.53;;;12.90;93.20;;;;;;7382852;19;20013;-73
2023/11/22 12:10:08;;;;;;;13.63;6.90;;;12.90;93.00;;;;;;7382526;19;20024;-73
2023/11/22 12:12:39;;;;;;;18.67;6.82;;;12.90;92.80;;;;;;7403989;19;20014;-74
2023/11/22 12:15:14;;;;;;;15.00;6.78;;;13.00;92.60;;;;;;7382068;19;20361;-73
2023/11/22 12:17:43;;;;;;;11.82;6.93;;;13.10;93.00;;;;;;7381696;19;20003;-74
2023/11/22 12:20:14;;;;;;;13.95;6.72;;;13.10;92.00;;;;;;7382041;19;20011;-73
2023/11/22 12:22:43;;;;;;;9.73;6.25;;;13.10;92.40;;;;;;7382252;19;20026;-74
2023/11/22 12:25:14;;;;;;;13.10;6.55;;;13.20;91.90;;;;;;7382209;19;20006;-74
2023/11/22 12:27:44;;;;;;;10.13;5.40;;;13.30;91.70;;;;;;7403591;19;20014;-74
2023/11/22 12:30:31;;;;;;;10.00;5.50;;;13.20;89.30;;;;;;7380548;19;20009;-73
2023/11/22 12:33:03;;;;;;;9.25;5.22;;;13.20;88.30;;;;;;7384322;19;20006;-74
2023/11/22 12:35:32;;;;;;;;;;;13.20;89.90;;;;;;7381841;19;20009;-73
2023/11/22 12:38:02;;;;;;;9.02;4.85;;;13.30;89.60;;;;;;7380766;19;19910;-73
2023/11/22 12:40:33;;;;;;;10.93;5.82;;;13.30;89.70;;;;;;7381490;19;20014;-74
2023/11/22 12:43:03;;;;;;;13.15;5.60;;;13.30;86.80;;;;;;7381328;19;20031;-73
2023/11/22 12:45:38;;;;;;;12.23;5.90;;;13.20;87.20;;;;;;7400840;19;20007;-73
2023/11/22 12:48:23;;;;;;;9.63;5.80;;;13.30;87.80;;;;;;7381917;19;19998;-73
2023/11/22 12:50:53;;;;;;;11.63;6.15;;;13.30;86.90;;;;;;7379623;19;19999;-74
2023/11/22 12:53:25;;;;;;;11.23;6.43;;;13.30;86.60;;;;;;7385484;19;20003;-75